createdAt,value
2022-09-27T00:01:11.237Z,0.68
2022-09-27T00:03:38.183Z,0.60
2022-09-27T00:06:09.259Z,0.85
2022-09-27T00:08:37.447Z,1.00
2022-09-27T00:11:25.427Z,1.00
2022-09-27T00:13:52.069Z,0.60
2022-09-27T00:16:18.626Z,0.70
2022-09-27T00:18:45.198Z,0.75
2022-09-27T00:21:13.156Z,1.17
2022-09-27T00:23:40.679Z,0.80
2022-09-27T00:26:08.942Z,1.58
2022-09-27T00:28:35.462Z,0.73
2022-09-27T00:31:02.520Z,1.25
2022-09-27T00:33:29.291Z,0.70
2022-09-27T00:35:55.927Z,0.73
2022-09-27T00:38:22.494Z,0.70
2022-09-27T00:40:49.289Z,0.90
2022-09-27T00:43:19.630Z,2.63
2022-09-27T00:45:52.257Z,1.38
2022-09-27T00:48:23.771Z,0.93
2022-09-27T00:50:54.949Z,2.28
2022-09-27T00:53:27.731Z,1.83
2022-09-27T00:55:59.596Z,1.80
2022-09-27T00:58:32.914Z,2.35
2022-09-27T01:01:03.145Z,1.63
2022-09-27T01:03:37.863Z,1.33
2022-09-27T01:06:06.694Z,2.47
2022-09-27T01:08:33.703Z,1.98
2022-09-27T01:11:07.442Z,1.15
2022-09-27T01:14:07.629Z,0.90
2022-09-27T01:17:07.919Z,1.77
2022-09-27T01:20:12.382Z,1.17
2022-09-27T01:22:51.380Z,1.00
2022-09-27T01:25:49.743Z,1.70
2022-09-27T01:28:20.758Z,1.42
2022-09-27T01:31:11.167Z,1.35
2022-09-27T01:33:47.765Z,2.17
2022-09-27T01:36:26.993Z,2.45
2022-09-27T01:39:08.698Z,1.50
2022-09-27T01:41:45.019Z,2.97
2022-09-27T01:44:15.966Z,1.88
2022-09-27T01:46:48.766Z,1.70
2022-09-27T01:49:27.550Z,2.60
2022-09-27T01:52:00.323Z,2.85
2022-09-27T01:54:48.711Z,2.75
2022-09-27T01:57:22.981Z,2.40
2022-09-27T02:00:04.375Z,2.47
2022-09-27T02:02:35.149Z,2.58
2022-09-27T02:05:05.742Z,3.00
2022-09-27T02:07:38.139Z,4.22
2022-09-27T02:10:14.694Z,2.30
2022-09-27T02:12:58.099Z,2.90
2022-09-27T02:15:26.565Z,1.63
2022-09-27T02:18:01.907Z,2.83
2022-09-27T02:20:37.619Z,3.00
2022-09-27T02:23:07.185Z,3.13
2022-09-27T02:26:00.540Z,3.95
2022-09-27T02:28:45.739Z,3.63
2022-09-27T02:31:12.530Z,3.55
2022-09-27T02:33:46.828Z,3.42
2022-09-27T02:36:13.700Z,3.63
2022-09-27T02:38:41.016Z,2.53
2022-09-27T02:41:19.619Z,3.75
2022-09-27T02:43:50.271Z,3.35
2022-09-27T02:46:38.823Z,3.75
2022-09-27T02:49:36.487Z,3.85
2022-09-27T02:52:14.954Z,2.30
2022-09-27T02:54:47.173Z,4.35
2022-09-27T02:57:22.770Z,5.07
2022-09-27T03:00:10.475Z,4.10
2022-09-27T03:02:56.437Z,2.58
2022-09-27T03:05:27.896Z,4.25
2022-09-27T03:07:54.763Z,3.58
2022-09-27T03:10:25.532Z,3.63
2022-09-27T03:12:53.435Z,4.47
2022-09-27T03:15:20.199Z,2.90
2022-09-27T03:17:46.869Z,3.47
2022-09-27T03:20:13.476Z,3.42
2022-09-27T03:22:40.996Z,3.20
2022-09-27T03:25:09.130Z,3.60
2022-09-27T03:27:35.633Z,3.72
2022-09-27T03:30:02.167Z,3.40
2022-09-27T03:32:28.721Z,3.08
2022-09-27T03:34:55.466Z,3.70
2022-09-27T03:37:22.633Z,4.20
2022-09-27T03:39:49.570Z,3.20
2022-09-27T03:42:16.087Z,4.20
2022-09-27T03:44:43.238Z,2.92
2022-09-27T03:47:10.088Z,4.57
2022-09-27T03:49:36.696Z,3.90
2022-09-27T03:52:03.199Z,2.60
2022-09-27T03:54:29.680Z,3.45
2022-09-27T03:56:56.258Z,4.35
2022-09-27T03:59:22.738Z,3.47
2022-09-27T04:01:49.352Z,2.88
2022-09-27T04:04:15.961Z,3.67
2022-09-27T04:06:42.755Z,3.97
2022-09-27T04:09:09.300Z,3.85
2022-09-27T04:11:35.825Z,2.50
2022-09-27T04:14:05.086Z,2.35
2022-09-27T04:16:32.769Z,3.95
2022-09-27T04:18:59.531Z,3.65
2022-09-27T04:21:25.990Z,2.70
2022-09-27T04:23:52.615Z,3.38
2022-09-27T04:26:21.101Z,2.90
2022-09-27T04:28:52.111Z,2.72
2022-09-27T04:31:21.015Z,3.63
2022-09-27T04:33:47.580Z,3.60
2022-09-27T04:36:26.498Z,3.10
2022-09-27T04:39:01.418Z,3.67
2022-09-27T04:41:28.767Z,2.80
2022-09-27T04:43:59.114Z,2.78
2022-09-27T04:46:26.431Z,3.50
2022-09-27T04:48:53.097Z,2.85
2022-09-27T04:51:20.098Z,3.65
2022-09-27T04:53:47.625Z,4.00
2022-09-27T04:56:15.996Z,3.03
2022-09-27T04:58:42.915Z,4.30
2022-09-27T05:01:09.960Z,2.65
2022-09-27T05:03:37.135Z,3.78
2022-09-27T05:06:03.703Z,3.65
2022-09-27T05:08:30.210Z,3.88
2022-09-27T05:10:56.735Z,2.92
2022-09-27T05:13:23.327Z,3.30
2022-09-27T05:15:49.892Z,3.33
2022-09-27T05:18:17.401Z,3.72
2022-09-27T05:20:45.228Z,3.17
2022-09-27T05:23:12.171Z,3.30
2022-09-27T05:25:38.758Z,3.50
2022-09-27T05:28:06.197Z,3.00
2022-09-27T05:30:32.872Z,3.97
2022-09-27T05:32:59.438Z,3.35
2022-09-27T05:35:26.180Z,4.60
2022-09-27T05:37:57.874Z,2.70
2022-09-27T05:40:41.939Z,2.88
2022-09-27T05:43:08.854Z,3.38
2022-09-27T05:45:35.337Z,4.07
2022-09-27T05:48:02.099Z,3.33
2022-09-27T05:50:28.849Z,2.70
2022-09-27T05:52:55.475Z,3.28
2022-09-27T05:55:22.198Z,4.35
2022-09-27T05:58:02.949Z,3.45
2022-09-27T06:00:29.643Z,3.30
2022-09-27T06:03:02.175Z,2.78
2022-09-27T06:05:31.840Z,4.97
2022-09-27T06:08:04.012Z,4.15
2022-09-27T06:10:32.023Z,2.85
2022-09-27T06:13:05.479Z,3.15
2022-09-27T06:15:33.775Z,4.00
2022-09-27T06:18:06.453Z,3.80
2022-09-27T06:20:34.142Z,3.00
2022-09-27T06:23:09.650Z,2.67
2022-09-27T06:25:36.884Z,3.45
2022-09-27T06:28:04.684Z,2.80
2022-09-27T06:30:32.115Z,3.00
2022-09-27T06:33:00.575Z,3.97
2022-09-27T06:35:31.171Z,3.70
2022-09-27T06:37:57.753Z,2.83
2022-09-27T06:40:28.219Z,2.22
2022-09-27T06:42:54.778Z,3.03
2022-09-27T06:45:21.353Z,3.10
2022-09-27T06:47:47.890Z,3.70
2022-09-27T06:50:14.574Z,3.17
2022-09-27T06:52:48.777Z,4.63
2022-09-27T06:55:16.213Z,2.55
2022-09-27T06:58:01.490Z,2.70
2022-09-27T07:00:28.394Z,2.67
2022-09-27T07:02:58.513Z,3.30
2022-09-27T07:05:25.885Z,3.88
2022-09-27T07:07:55.991Z,2.65
2022-09-27T07:10:22.711Z,2.85
2022-09-27T07:12:49.221Z,4.13
2022-09-27T07:15:16.015Z,2.85
2022-09-27T07:17:42.763Z,4.05
2022-09-27T07:20:09.469Z,3.65
2022-09-27T07:22:41.264Z,4.93
2022-09-27T07:25:08.115Z,5.18
2022-09-27T07:27:38.373Z,3.78
2022-09-27T07:30:07.282Z,4.13
2022-09-27T07:32:35.618Z,3.03
2022-09-27T07:35:05.791Z,5.43
2022-09-27T07:37:33.587Z,3.90
2022-09-27T07:40:00.746Z,3.50
2022-09-27T07:42:31.009Z,4.25
2022-09-27T07:44:57.803Z,3.63
2022-09-27T07:47:25.590Z,3.90
2022-09-27T07:49:53.104Z,4.55
2022-09-27T07:52:20.607Z,4.10
2022-09-27T07:54:47.327Z,3.97
2022-09-27T07:57:15.316Z,3.55
2022-09-27T07:59:42.478Z,3.88
2022-09-27T08:02:17.439Z,3.85
2022-09-27T08:04:44.118Z,5.18
2022-09-27T08:07:14.286Z,3.70
2022-09-27T08:09:41.541Z,3.35
2022-09-27T08:12:08.367Z,4.38
2022-09-27T08:14:40.944Z,4.45
2022-09-27T08:17:12.416Z,4.28
2022-09-27T08:19:40.619Z,3.72
2022-09-27T08:22:08.311Z,3.80
2022-09-27T08:24:34.803Z,3.90
2022-09-27T08:27:02.577Z,3.70
2022-09-27T08:29:29.051Z,3.85
2022-09-27T08:31:55.852Z,3.92
2022-09-27T08:34:23.045Z,4.65
2022-09-27T08:36:49.543Z,2.78
2022-09-27T08:39:16.175Z,3.67
2022-09-27T08:42:01.563Z,4.68
2022-09-27T08:44:43.370Z,3.72
2022-09-27T08:47:44.195Z,4.20
2022-09-27T08:50:27.143Z,4.53
2022-09-27T08:53:20.424Z,5.25
2022-09-27T08:55:53.688Z,3.63
2022-09-27T08:58:30.914Z,4.85
2022-09-27T09:01:00.096Z,3.95
2022-09-27T09:03:33.560Z,3.85
2022-09-27T09:06:02.769Z,2.87
2022-09-27T09:09:01.531Z,4.15
2022-09-27T09:12:05.806Z,4.47
2022-09-27T09:14:51.204Z,4.45
2022-09-27T09:17:17.664Z,3.80
2022-09-27T09:20:17.458Z,4.35
2022-09-27T09:23:04.694Z,3.42
2022-09-27T09:25:43.653Z,3.75
2022-09-27T09:28:28.914Z,3.42
2022-09-27T09:31:11.528Z,3.15
2022-09-27T09:33:44.494Z,2.90
2022-09-27T09:36:10.951Z,3.03
2022-09-27T09:38:58.110Z,2.60
2022-09-27T09:41:36.766Z,3.10
2022-09-27T09:44:06.270Z,2.92
2022-09-27T09:46:45.816Z,3.60
2022-09-27T09:49:27.818Z,2.58
2022-09-27T09:51:59.949Z,2.60
2022-09-27T09:54:51.979Z,2.05
2022-09-27T09:57:21.397Z,2.30
2022-09-27T09:59:55.384Z,3.03
2022-09-27T10:02:38.435Z,2.60
2022-09-27T10:05:08.093Z,2.33
2022-09-27T10:07:38.370Z,2.95
2022-09-27T10:10:07.172Z,3.10
2022-09-27T10:12:35.395Z,3.15
2022-09-27T10:15:05.247Z,2.60
2022-09-27T10:17:38.865Z,2.75
2022-09-27T10:20:07.361Z,2.75
2022-09-27T10:22:46.542Z,2.90
2022-09-27T10:25:14.333Z,2.90
2022-09-27T10:27:50.214Z,2.50
2022-09-27T10:30:29.709Z,2.10
2022-09-27T10:33:19.052Z,2.25
2022-09-27T10:35:49.284Z,1.75
2022-09-27T10:38:18.856Z,2.85
2022-09-27T10:40:45.858Z,2.05
2022-09-27T10:43:30.090Z,2.33
2022-09-27T10:46:31.766Z,1.80
2022-09-27T10:49:19.458Z,1.42
2022-09-27T10:51:50.014Z,2.05
2022-09-27T10:54:22.288Z,1.73
2022-09-27T10:57:05.486Z,2.17
2022-09-27T10:59:36.640Z,2.83
2022-09-27T11:02:05.231Z,1.17
2022-09-27T11:04:36.307Z,1.67
2022-09-27T11:07:15.763Z,1.73
2022-09-27T11:10:03.272Z,1.85
2022-09-27T11:12:32.040Z,1.17
2022-09-27T11:15:03.190Z,1.23
2022-09-27T11:18:05.771Z,2.08
2022-09-27T11:20:48.188Z,1.45
2022-09-27T11:23:43.496Z,1.63
2022-09-27T11:26:40.573Z,1.75
2022-09-27T11:30:04.912Z,1.80
2022-09-27T11:33:17.846Z,1.50
2022-09-27T11:35:57.291Z,1.75
2022-09-27T11:38:52.635Z,1.20
2022-09-27T11:41:32.447Z,2.30
2022-09-27T11:44:21.226Z,1.30
2022-09-27T11:46:59.458Z,2.20
2022-09-27T11:49:42.815Z,1.92
2022-09-27T11:52:37.159Z,1.92
2022-09-27T11:55:35.900Z,1.88
2022-09-27T11:58:05.545Z,1.92
2022-09-27T12:00:44.180Z,1.02
2022-09-27T12:03:26.024Z,2.10
2022-09-27T12:05:58.741Z,2.22
2022-09-27T12:09:11.677Z,1.02
2022-09-27T12:12:07.799Z,1.65
2022-09-27T12:14:40.338Z,0.90
2022-09-27T12:17:15.373Z,1.23
2022-09-27T12:19:50.519Z,2.05
2022-09-27T12:22:53.933Z,1.20
2022-09-27T12:25:20.878Z,1.80
2022-09-27T12:27:56.840Z,1.70
2022-09-27T12:30:23.419Z,2.03
2022-09-27T12:33:23.061Z,1.15
2022-09-27T12:35:54.166Z,1.20
2022-09-27T12:38:46.880Z,1.38
2022-09-27T12:41:17.346Z,0.90
2022-09-27T12:43:49.564Z,1.75
2022-09-27T12:46:25.697Z,1.27
2022-09-27T12:49:05.702Z,1.45
2022-09-27T12:51:38.775Z,1.27
2022-09-27T12:54:32.263Z,1.60
2022-09-27T12:57:36.391Z,1.30
2022-09-27T13:00:38.503Z,1.35
2022-09-27T13:03:18.739Z,1.45
2022-09-27T13:06:11.255Z,0.90
2022-09-27T13:08:38.392Z,1.35
2022-09-27T13:11:16.618Z,1.33
2022-09-27T13:13:43.736Z,1.88
2022-09-27T13:16:12.523Z,1.88
2022-09-27T13:18:48.612Z,1.33
2022-09-27T13:21:58.178Z,0.82
2022-09-27T13:24:40.781Z,1.17
2022-09-27T13:27:22.347Z,0.80
2022-09-27T13:29:50.402Z,0.63
2022-09-27T13:32:24.997Z,1.67
2022-09-27T13:35:07.212Z,0.70
2022-09-27T13:38:00.554Z,0.70
2022-09-27T13:40:28.696Z,1.05
2022-09-27T13:43:36.990Z,1.35
2022-09-27T13:46:10.150Z,2.20
2022-09-27T13:49:04.427Z,1.40
2022-09-27T13:51:43.254Z,1.10
2022-09-27T13:54:34.750Z,1.35
2022-09-27T13:57:02.272Z,1.25
2022-09-27T13:59:44.072Z,1.42
2022-09-27T14:02:27.305Z,1.38
2022-09-27T14:04:56.771Z,2.15
2022-09-27T14:07:39.382Z,1.38
2022-09-27T14:10:12.914Z,2.33
2022-09-27T14:12:41.411Z,1.45
2022-09-27T14:15:10.909Z,1.75
2022-09-27T14:17:45.920Z,1.58
2022-09-27T14:20:41.565Z,1.08
2022-09-27T14:23:21.737Z,1.48
2022-09-27T14:25:50.019Z,0.82
2022-09-27T14:28:26.299Z,1.70
2022-09-27T14:31:25.621Z,1.52
2022-09-27T14:34:05.622Z,1.33
2022-09-27T14:36:53.080Z,1.40
2022-09-27T14:39:35.887Z,1.45
2022-09-27T14:42:05.891Z,1.92
2022-09-27T14:44:33.455Z,1.42
2022-09-27T14:47:11.254Z,1.33
2022-09-27T14:49:47.547Z,2.15
2022-09-27T14:52:31.298Z,1.48
2022-09-27T14:55:00.641Z,1.30
2022-09-27T14:57:32.832Z,1.10
2022-09-27T15:00:36.320Z,1.05
2022-09-27T15:03:05.956Z,1.23
2022-09-27T15:05:34.227Z,1.35
2022-09-27T15:08:05.682Z,1.58
2022-09-27T15:10:35.729Z,1.92
2022-09-27T15:13:05.275Z,1.33
2022-09-27T15:15:39.148Z,2.00
2022-09-27T15:18:33.536Z,2.20
2022-09-27T15:21:01.123Z,1.25
2022-09-27T15:23:49.196Z,1.75
2022-09-27T15:26:25.443Z,1.80
2022-09-27T15:28:53.231Z,1.85
2022-09-27T15:31:35.694Z,1.40
2022-09-27T15:34:06.779Z,1.33
2022-09-27T15:36:49.967Z,1.92
2022-09-27T15:39:38.413Z,0.82
2022-09-27T15:42:13.908Z,1.80
2022-09-27T15:44:43.288Z,0.47
2022-09-27T15:47:31.982Z,1.75
2022-09-27T15:49:59.404Z,0.82
2022-09-27T15:52:53.200Z,1.73
2022-09-27T15:55:25.336Z,1.40
2022-09-27T15:57:59.262Z,0.88
2022-09-27T16:00:26.643Z,1.30
2022-09-27T16:02:53.929Z,1.05
2022-09-27T16:05:22.895Z,1.77
2022-09-27T16:07:50.461Z,1.15
2022-09-27T16:10:18.650Z,1.40
2022-09-27T16:12:45.225Z,0.90
2022-09-27T16:15:12.857Z,0.95
2022-09-27T16:17:42.479Z,1.10
2022-09-27T16:20:18.583Z,0.80
2022-09-27T16:22:46.218Z,1.13
2022-09-27T16:25:13.026Z,1.38
2022-09-27T16:27:39.931Z,1.55
2022-09-27T16:30:07.995Z,1.45
2022-09-27T16:32:35.966Z,1.30
2022-09-27T16:35:03.459Z,1.33
2022-09-27T16:37:30.406Z,1.38
2022-09-27T16:39:57.089Z,1.65
2022-09-27T16:42:23.709Z,1.38
2022-09-27T16:44:50.636Z,1.73
2022-09-27T16:47:17.160Z,1.58
2022-09-27T16:50:02.150Z,1.55
2022-09-27T16:52:31.523Z,1.73
2022-09-27T16:54:58.203Z,1.40
2022-09-27T16:57:28.247Z,1.20
2022-09-27T16:59:56.911Z,1.40
2022-09-27T17:02:24.596Z,1.63
2022-09-27T17:04:51.987Z,1.38
2022-09-27T17:07:18.538Z,1.63
2022-09-27T17:09:45.240Z,1.30
2022-09-27T17:12:12.900Z,1.55
2022-09-27T17:14:39.677Z,1.70
2022-09-27T17:17:08.867Z,1.52
2022-09-27T17:19:37.129Z,1.48
2022-09-27T17:22:03.690Z,1.83
2022-09-27T17:24:30.201Z,1.60
2022-09-27T17:26:56.741Z,1.58
2022-09-27T17:29:23.269Z,1.65
2022-09-27T17:31:49.901Z,1.63
2022-09-27T17:34:17.133Z,2.70
2022-09-27T17:36:48.404Z,2.33
2022-09-27T17:39:21.773Z,2.05
2022-09-27T17:41:49.836Z,2.17
2022-09-27T17:44:18.563Z,2.03
2022-09-27T17:46:46.486Z,2.25
2022-09-27T17:49:32.875Z,2.20
2022-09-27T17:51:59.682Z,2.58
2022-09-27T17:54:28.163Z,2.58
2022-09-27T17:56:56.525Z,2.75
2022-09-27T17:59:23.885Z,2.63
2022-09-27T18:01:50.570Z,2.10
2022-09-27T18:04:19.773Z,2.65
2022-09-27T18:06:47.034Z,2.05
2022-09-27T18:09:16.280Z,2.30
2022-09-27T18:11:44.086Z,2.00
2022-09-27T18:14:10.830Z,2.45
2022-09-27T18:16:42.966Z,1.92
2022-09-27T18:19:15.333Z,2.90
2022-09-27T18:21:42.679Z,3.47
2022-09-27T18:24:10.133Z,2.50
2022-09-27T18:26:38.472Z,3.40
2022-09-27T18:29:13.042Z,3.30
2022-09-27T18:31:41.458Z,2.90
2022-09-27T18:34:10.500Z,2.50
2022-09-27T18:36:37.643Z,1.60
2022-09-27T18:39:06.199Z,1.80
2022-09-27T18:41:34.706Z,2.47
2022-09-27T18:44:05.031Z,3.10
2022-09-27T18:46:37.308Z,2.53
2022-09-27T18:49:06.409Z,2.45
2022-09-27T18:51:37.195Z,2.38
2022-09-27T18:54:06.590Z,2.55
2022-09-27T18:56:39.555Z,1.85
2022-09-27T18:59:08.600Z,2.35
2022-09-27T19:01:39.768Z,2.35
2022-09-27T19:04:07.892Z,2.75
2022-09-27T19:06:35.965Z,2.95
2022-09-27T19:09:03.930Z,2.75
2022-09-27T19:11:31.068Z,3.05
2022-09-27T19:13:58.462Z,2.97
2022-09-27T19:16:27.478Z,2.97
2022-09-27T19:18:54.408Z,2.55
2022-09-27T19:21:24.191Z,4.03
2022-09-27T19:23:51.488Z,3.53
2022-09-27T19:26:20.342Z,2.53
2022-09-27T19:28:47.626Z,3.70
2022-09-27T19:31:20.384Z,4.53
2022-09-27T19:33:47.506Z,4.18
2022-09-27T19:36:16.815Z,3.03
2022-09-27T19:38:44.174Z,3.85
2022-09-27T19:41:13.214Z,4.80
2022-09-27T19:43:39.926Z,3.03
2022-09-27T19:46:18.216Z,3.85
2022-09-27T19:48:46.006Z,3.88
2022-09-27T19:51:18.496Z,3.38
2022-09-27T19:53:45.370Z,3.70
2022-09-27T19:56:12.637Z,3.42
2022-09-27T19:58:40.543Z,3.88
2022-09-27T20:01:10.133Z,3.55
2022-09-27T20:03:39.328Z,3.55
2022-09-27T20:06:09.588Z,3.35
2022-09-27T20:08:36.143Z,4.30
2022-09-27T20:11:11.261Z,3.17
2022-09-27T20:13:39.055Z,3.10
2022-09-27T20:16:12.704Z,4.97
2022-09-27T20:18:50.423Z,4.25
2022-09-27T20:21:18.133Z,4.03
2022-09-27T20:23:48.883Z,3.70
2022-09-27T20:26:17.223Z,3.47
2022-09-27T20:28:49.139Z,4.45
2022-09-27T20:31:21.765Z,4.05
2022-09-27T20:33:51.721Z,3.88
2022-09-27T20:36:18.187Z,4.18
2022-09-27T20:38:50.093Z,3.92
2022-09-27T20:41:18.267Z,3.92
2022-09-27T20:43:45.717Z,4.28
2022-09-27T20:46:17.321Z,4.30
2022-09-27T20:48:45.064Z,4.68
2022-09-27T20:51:16.419Z,5.88
2022-09-27T20:53:45.057Z,5.18
2022-09-27T20:56:34.096Z,4.38
2022-09-27T20:59:03.765Z,4.57
2022-09-27T21:01:31.777Z,5.07
2022-09-27T21:04:04.106Z,4.55
2022-09-27T21:06:32.889Z,5.43
2022-09-27T21:09:00.363Z,4.45
2022-09-27T21:11:27.200Z,4.30
2022-09-27T21:13:53.911Z,4.78
2022-09-27T21:16:25.203Z,4.97
2022-09-27T21:18:53.603Z,4.88
2022-09-27T21:21:21.366Z,4.22
2022-09-27T21:23:52.602Z,4.15
2022-09-27T21:26:21.095Z,4.07
2022-09-27T21:28:52.897Z,5.30
2022-09-27T21:31:23.750Z,4.07
2022-09-27T21:33:58.523Z,4.32
2022-09-27T21:36:27.335Z,4.85
2022-09-27T21:38:54.823Z,4.25
2022-09-27T21:41:21.473Z,4.55
2022-09-27T21:43:48.945Z,4.18
2022-09-27T21:46:27.073Z,4.03
2022-09-27T21:48:56.414Z,6.05
2022-09-27T21:51:27.590Z,3.80
2022-09-27T21:54:00.713Z,4.47
2022-09-27T21:56:29.749Z,3.22
2022-09-27T21:58:56.287Z,3.95
2022-09-27T22:01:25.294Z,4.55
2022-09-27T22:03:54.177Z,4.18
2022-09-27T22:06:23.364Z,4.53
2022-09-27T22:08:50.953Z,3.90
2022-09-27T22:11:21.271Z,4.63
2022-09-27T22:13:48.006Z,4.00
2022-09-27T22:16:16.664Z,3.35
2022-09-27T22:18:45.496Z,3.40
2022-09-27T22:21:15.011Z,4.80
2022-09-27T22:23:41.721Z,4.18
2022-09-27T22:26:20.503Z,4.18
2022-09-27T22:28:48.491Z,5.45
2022-09-27T22:31:16.657Z,5.43
2022-09-27T22:33:43.265Z,4.15
2022-09-27T22:36:09.994Z,4.88
2022-09-27T22:38:36.798Z,3.80
2022-09-27T22:41:03.512Z,5.05
2022-09-27T22:43:31.326Z,4.70
2022-09-27T22:46:00.281Z,4.80
2022-09-27T22:48:30.980Z,4.10
2022-09-27T22:50:59.100Z,4.28
2022-09-27T22:53:27.564Z,4.70
2022-09-27T22:56:07.097Z,4.47
2022-09-27T22:58:34.698Z,4.35
2022-09-27T23:01:09.630Z,4.13
2022-09-27T23:03:37.059Z,4.20
2022-09-27T23:06:04.475Z,4.07
2022-09-27T23:08:35.859Z,4.38
2022-09-27T23:11:11.191Z,3.65
2022-09-27T23:13:40.294Z,4.88
2022-09-27T23:16:09.556Z,3.78
2022-09-27T23:18:37.256Z,4.15
2022-09-27T23:21:10.450Z,3.20
2022-09-27T23:23:45.687Z,4.18
2022-09-27T23:26:15.093Z,2.67
2022-09-27T23:28:42.260Z,2.88
2022-09-27T23:31:11.117Z,3.67
2022-09-27T23:33:40.061Z,3.72
2022-09-27T23:36:10.155Z,3.78
2022-09-27T23:38:37.820Z,3.55
2022-09-27T23:41:04.554Z,4.88
2022-09-27T23:43:31.099Z,4.03
2022-09-27T23:45:57.682Z,4.28
2022-09-27T23:48:25.437Z,2.72
2022-09-27T23:50:52.406Z,2.50
2022-09-27T23:53:19.922Z,4.22
2022-09-27T23:55:46.874Z,2.53
2022-09-27T23:58:13.463Z,2.60
